createdAt,value
2019-05-28T00:01:30.889Z,99.90
2019-05-28T00:03:59.760Z,99.90
2019-05-28T00:06:28.654Z,99.90
2019-05-28T00:08:57.550Z,99.90
2019-05-28T00:11:26.400Z,99.90
2019-05-28T00:13:55.154Z,99.90
2019-05-28T00:16:23.899Z,99.90
2019-05-28T00:18:52.707Z,99.90
2019-05-28T00:21:21.500Z,99.90
2019-05-28T00:23:50.239Z,99.90
2019-05-28T00:26:19.008Z,99.90
2019-05-28T00:28:47.841Z,99.90
2019-05-28T00:31:16.568Z,99.90
2019-05-28T00:33:45.470Z,99.90
2019-05-28T00:36:14.213Z,99.90
2019-05-28T00:38:43.019Z,99.90
2019-05-28T00:41:11.776Z,99.90
2019-05-28T00:43:40.527Z,99.90
2019-05-28T00:46:09.333Z,99.90
2019-05-28T00:48:38.085Z,99.90
2019-05-28T00:51:06.958Z,99.90
2019-05-28T00:53:35.746Z,99.90
2019-05-28T00:56:04.592Z,99.90
2019-05-28T00:58:33.876Z,99.90
2019-05-28T01:01:02.645Z,99.90
2019-05-28T01:03:31.446Z,99.90
2019-05-28T01:06:00.223Z,99.90
2019-05-28T01:08:28.997Z,99.90
2019-05-28T01:10:57.843Z,99.90
2019-05-28T01:13:26.613Z,99.90
2019-05-28T01:15:55.429Z,99.90
2019-05-28T01:18:24.424Z,99.90
2019-05-28T01:20:53.241Z,99.90
2019-05-28T01:23:21.991Z,99.90
2019-05-28T01:25:50.742Z,99.90
2019-05-28T01:28:19.698Z,99.90
2019-05-28T01:30:57.457Z,99.90
2019-05-28T01:33:19.090Z,99.90
2019-05-28T01:35:47.881Z,99.90
2019-05-28T01:38:16.640Z,99.90
2019-05-28T01:40:45.387Z,99.90
2019-05-28T01:43:14.260Z,99.90
2019-05-28T01:45:43.019Z,99.90
2019-05-28T01:48:11.839Z,99.90
2019-05-28T01:50:40.621Z,99.90
2019-05-28T01:53:09.436Z,99.90
2019-05-28T01:55:38.193Z,99.90
2019-05-28T01:58:07.059Z,99.90
2019-05-28T02:00:35.796Z,99.90
2019-05-28T02:03:04.852Z,99.90
2019-05-28T02:05:33.702Z,99.90
2019-05-28T02:08:02.483Z,99.90
2019-05-28T02:10:31.273Z,99.90
2019-05-28T02:13:00.079Z,99.90
2019-05-28T02:15:29.363Z,99.90
2019-05-28T02:17:58.141Z,99.90
2019-05-28T02:20:27.053Z,99.90
2019-05-28T02:22:55.955Z,99.90
2019-05-28T02:25:24.694Z,99.90
2019-05-28T02:27:53.521Z,99.90
2019-05-28T02:30:24.199Z,99.90
2019-05-28T02:32:53.475Z,99.00
2019-05-28T02:35:22.216Z,96.90
2019-05-28T02:37:51.025Z,94.10
2019-05-28T02:40:21.626Z,92.40
2019-05-28T02:42:50.398Z,90.80
2019-05-28T02:45:19.500Z,90.50
2019-05-28T02:47:48.393Z,91.40
2019-05-28T02:50:17.920Z,92.20
2019-05-28T02:52:47.553Z,93.20
2019-05-28T02:55:16.542Z,94.20
2019-05-28T02:57:47.823Z,94.80
2019-05-28T03:00:19.095Z,95.40
2019-05-28T03:06:30.466Z,96.20
2019-05-28T03:09:02.181Z,96.40
2019-05-28T03:11:30.972Z,96.60
2019-05-28T03:13:59.739Z,97.00
2019-05-28T03:16:30.627Z,97.20
2019-05-28T03:19:00.822Z,97.50
2019-05-28T03:21:30.711Z,96.80
2019-05-28T03:24:02.108Z,95.50
2019-05-28T03:26:30.984Z,89.40
2019-05-28T03:28:59.807Z,77.60
2019-05-28T03:31:28.698Z,67.80
2019-05-28T03:33:57.579Z,62.60
2019-05-28T03:36:29.102Z,61.90
2019-05-28T03:38:59.796Z,64.50
2019-05-28T03:41:28.580Z,67.60
2019-05-28T03:43:57.347Z,71.00
2019-05-28T03:46:26.162Z,74.50
2019-05-28T03:48:54.893Z,76.90
2019-05-28T03:51:23.707Z,79.70
2019-05-28T03:53:52.475Z,82.20
2019-05-28T03:56:21.245Z,84.00
2019-05-28T03:58:50.029Z,85.30
2019-05-28T04:01:18.817Z,86.60
2019-05-28T04:03:47.566Z,87.30
2019-05-28T04:06:16.361Z,87.70
2019-05-28T04:08:45.153Z,88.00
2019-05-28T04:11:13.933Z,88.80
2019-05-28T04:13:42.726Z,89.60
2019-05-28T04:16:11.550Z,90.10
2019-05-28T04:18:40.325Z,90.80
2019-05-28T04:28:06.659Z,89.20
2019-05-28T04:30:35.485Z,86.70
2019-05-28T04:33:04.218Z,85.70
2019-05-28T04:35:33.028Z,85.10
2019-05-28T04:38:01.840Z,85.00
2019-05-28T04:40:30.725Z,85.70
2019-05-28T04:42:59.533Z,86.90
2019-05-28T04:45:28.304Z,88.00
2019-05-28T04:47:57.076Z,87.30
2019-05-28T04:50:25.919Z,87.90
2019-05-28T04:52:54.696Z,88.50
2019-05-28T04:55:23.473Z,89.20
2019-05-28T04:57:52.266Z,89.30
2019-05-28T05:00:21.892Z,90.30
2019-05-28T05:02:59.577Z,90.90
2019-05-28T05:05:21.323Z,91.30
2019-05-28T05:07:50.126Z,90.90
2019-05-28T05:10:19.593Z,90.60
2019-05-28T05:12:48.608Z,90.00
2019-05-28T05:15:17.476Z,89.70
2019-05-28T05:17:46.340Z,89.80
2019-05-28T05:20:15.584Z,89.50
2019-05-28T05:22:44.374Z,89.80
2019-05-28T05:25:13.335Z,90.80
2019-05-28T05:27:42.244Z,91.40
2019-05-28T05:30:11.426Z,92.10
2019-05-28T05:32:40.165Z,92.50
2019-05-28T05:35:08.978Z,93.30
2019-05-28T05:37:37.797Z,93.80
2019-05-28T05:40:07.292Z,94.50
2019-05-28T05:42:36.232Z,94.60
2019-05-28T05:45:07.701Z,95.20
2019-05-28T05:47:36.863Z,95.30
2019-05-28T05:50:08.963Z,95.10
2019-05-28T05:52:37.774Z,95.20
2019-05-28T05:55:08.645Z,94.70
2019-05-28T05:57:37.438Z,94.40
2019-05-28T06:00:08.136Z,94.20
2019-05-28T06:02:37.515Z,94.50
2019-05-28T06:05:06.942Z,94.30
2019-05-28T06:07:35.887Z,94.30
2019-05-28T06:10:06.868Z,94.30
2019-05-28T06:12:35.735Z,94.20
2019-05-28T06:15:05.845Z,94.40
2019-05-28T06:17:34.844Z,94.30
2019-05-28T06:20:05.404Z,94.50
2019-05-28T06:22:34.203Z,94.70
2019-05-28T06:25:03.075Z,94.70
2019-05-28T06:27:31.967Z,94.30
2019-05-28T06:30:00.824Z,94.10
2019-05-28T06:32:33.109Z,93.90
2019-05-28T06:35:00.083Z,93.60
2019-05-28T06:37:28.893Z,92.80
2019-05-28T06:39:57.775Z,92.40
2019-05-28T06:42:26.643Z,91.60
2019-05-28T06:44:55.500Z,91.20
2019-05-28T06:47:24.264Z,91.00
2019-05-28T06:49:53.210Z,90.50
2019-05-28T06:52:21.949Z,91.00
2019-05-28T06:54:50.787Z,91.30
2019-05-28T06:57:22.891Z,92.30
2019-05-28T06:59:49.939Z,92.20
2019-05-28T07:02:18.780Z,92.60
2019-05-28T07:04:47.559Z,92.90
2019-05-28T07:07:16.431Z,93.20
2019-05-28T07:09:45.319Z,93.50
2019-05-28T07:12:17.278Z,93.70
2019-05-28T07:14:44.581Z,93.90
2019-05-28T07:17:13.468Z,93.70
2019-05-28T07:19:42.238Z,93.40
2019-05-28T07:22:11.057Z,93.10
2019-05-28T07:24:40.455Z,93.00
2019-05-28T07:27:09.253Z,92.60
2019-05-28T07:29:38.064Z,92.70
2019-05-28T07:32:06.933Z,92.10
2019-05-28T07:34:35.825Z,92.40
2019-05-28T07:37:04.735Z,91.80
2019-05-28T07:39:33.510Z,91.30
2019-05-28T07:42:02.427Z,90.80
2019-05-28T07:44:31.448Z,90.40
2019-05-28T07:47:00.230Z,90.00
2019-05-28T07:49:29.036Z,89.90
2019-05-28T07:51:57.846Z,89.30
2019-05-28T07:54:26.628Z,88.60
2019-05-28T07:56:56.944Z,86.80
2019-05-28T07:59:25.820Z,86.30
2019-05-28T08:01:54.628Z,86.90
2019-05-28T08:04:23.414Z,87.60
2019-05-28T08:06:55.022Z,88.00
2019-05-28T08:09:22.668Z,88.90
2019-05-28T08:11:51.558Z,88.40
2019-05-28T08:14:20.341Z,89.00
2019-05-28T08:16:52.564Z,89.40
2019-05-28T08:19:19.581Z,89.50
2019-05-28T08:21:48.484Z,89.70
2019-05-28T08:24:17.375Z,90.00
2019-05-28T08:26:46.156Z,90.10
2019-05-28T08:29:14.907Z,90.40
2019-05-28T08:31:43.689Z,90.80
2019-05-28T08:34:12.624Z,91.00
2019-05-28T08:36:41.463Z,91.20
2019-05-28T08:39:10.242Z,91.20
2019-05-28T08:41:39.064Z,91.50
2019-05-28T08:44:07.930Z,91.80
2019-05-28T08:46:36.827Z,91.80
2019-05-28T08:49:05.921Z,91.60
2019-05-28T08:51:34.674Z,92.00
2019-05-28T08:54:04.016Z,92.20
2019-05-28T08:56:32.779Z,92.20
2019-05-28T08:59:01.662Z,93.80
2019-05-28T09:01:30.534Z,93.60
2019-05-28T09:03:59.341Z,94.30
2019-05-28T09:06:28.118Z,94.00
2019-05-28T09:08:56.978Z,93.90
2019-05-28T09:11:25.731Z,94.00
2019-05-28T09:13:54.524Z,93.70
2019-05-28T09:16:23.403Z,93.60
2019-05-28T09:18:52.263Z,92.90
2019-05-28T09:21:21.061Z,92.50
2019-05-28T09:23:49.877Z,92.70
2019-05-28T09:26:18.724Z,91.80
2019-05-28T09:28:47.567Z,91.90
2019-05-28T09:31:16.389Z,91.90
2019-05-28T09:33:45.204Z,91.90
2019-05-28T09:36:14.053Z,91.40
2019-05-28T09:38:42.877Z,92.10
2019-05-28T09:41:11.780Z,92.20
2019-05-28T09:43:40.686Z,91.60
2019-05-28T09:46:09.452Z,91.00
2019-05-28T09:48:38.275Z,91.00
2019-05-28T09:51:07.063Z,90.20
2019-05-28T09:53:35.928Z,89.80
2019-05-28T09:56:05.124Z,90.60
2019-05-28T09:58:33.994Z,90.80
2019-05-28T10:01:03.063Z,91.30
2019-05-28T10:03:31.972Z,91.30
2019-05-28T10:06:15.603Z,92.70
2019-05-28T10:08:31.296Z,93.90
2019-05-28T10:11:00.052Z,94.50
2019-05-28T10:13:39.594Z,93.70
2019-05-28T10:15:59.302Z,94.40
2019-05-28T10:18:28.167Z,95.20
2019-05-28T10:20:57.018Z,96.10
2019-05-28T10:23:25.793Z,95.80
2019-05-28T10:25:54.603Z,97.00
2019-05-28T10:28:23.384Z,96.70
2019-05-28T10:30:52.202Z,97.50
2019-05-28T10:33:21.115Z,97.50
2019-05-28T10:35:49.957Z,96.10
2019-05-28T10:38:18.790Z,97.10
2019-05-28T10:40:47.560Z,96.20
2019-05-28T10:43:16.365Z,96.20
2019-05-28T10:45:45.685Z,97.80
2019-05-28T10:48:14.713Z,97.20
2019-05-28T10:50:43.567Z,97.10
2019-05-28T10:53:12.422Z,98.40
2019-05-28T10:55:41.228Z,97.60
2019-05-28T10:58:10.042Z,97.10
2019-05-28T11:00:38.873Z,97.90
2019-05-28T11:03:07.723Z,95.10
2019-05-28T11:05:36.625Z,95.50
2019-05-28T11:08:05.440Z,92.50
2019-05-28T11:10:34.245Z,92.50
2019-05-28T11:13:03.021Z,91.20
2019-05-28T11:15:31.823Z,91.90
2019-05-28T11:18:00.638Z,93.50
2019-05-28T11:20:29.921Z,92.90
2019-05-28T11:22:58.706Z,93.10
2019-05-28T11:25:27.461Z,94.60
2019-05-28T11:27:56.265Z,97.00
2019-05-28T11:30:25.109Z,97.80
2019-05-28T11:32:53.837Z,98.80
2019-05-28T11:35:23.302Z,99.10
2019-05-28T11:37:52.095Z,98.80
2019-05-28T11:40:21.110Z,99.30
2019-05-28T11:42:49.873Z,99.50
2019-05-28T11:45:19.256Z,99.90
2019-05-28T11:47:50.610Z,99.90
2019-05-28T11:50:19.875Z,99.90
2019-05-28T11:52:48.712Z,99.90
2019-05-28T11:55:18.231Z,99.90
2019-05-28T11:57:47.006Z,99.90
2019-05-28T12:00:16.526Z,99.90
2019-05-28T12:02:45.336Z,99.90
2019-05-28T12:05:14.575Z,99.90
2019-05-28T12:07:43.435Z,99.90
2019-05-28T12:10:12.776Z,99.90
2019-05-28T12:12:41.494Z,99.90
2019-05-28T12:15:13.263Z,99.90
2019-05-28T12:17:45.012Z,99.90
2019-05-28T12:20:14.470Z,99.90
2019-05-28T12:22:43.356Z,99.90
2019-05-28T12:25:12.859Z,99.90
2019-05-28T12:27:41.656Z,99.90
2019-05-28T12:30:12.171Z,99.90
2019-05-28T12:32:41.016Z,99.90
2019-05-28T12:35:26.680Z,99.90
2019-05-28T12:37:47.812Z,99.90
2019-05-28T12:40:11.548Z,99.90
2019-05-28T12:42:40.645Z,99.90
2019-05-28T12:45:14.965Z,99.90
2019-05-28T12:47:43.749Z,99.90
2019-05-28T12:50:19.822Z,99.90
2019-05-28T12:52:47.407Z,99.90
2019-05-28T12:55:16.115Z,99.90
2019-05-28T12:57:44.933Z,99.90
2019-05-28T13:00:14.767Z,99.90
2019-05-28T13:02:43.743Z,99.90
2019-05-28T13:05:15.495Z,99.90
2019-05-28T13:07:44.260Z,99.90
2019-05-28T13:10:13.546Z,99.90
2019-05-28T13:12:42.316Z,99.90
2019-05-28T13:15:12.666Z,99.90
2019-05-28T13:17:41.504Z,99.90
2019-05-28T13:20:11.297Z,99.90
2019-05-28T13:22:40.354Z,99.90
2019-05-28T13:25:09.966Z,99.90
2019-05-28T13:27:38.777Z,99.90
2019-05-28T13:30:14.694Z,99.90
2019-05-28T13:32:44.183Z,99.90
2019-05-28T13:35:14.617Z,99.90
2019-05-28T13:37:43.435Z,99.90
2019-05-28T13:40:14.451Z,99.90
2019-05-28T13:42:43.255Z,99.90
2019-05-28T13:45:12.663Z,99.90
2019-05-28T13:47:41.459Z,99.90
2019-05-28T13:50:11.080Z,99.90
2019-05-28T13:52:40.003Z,99.90
2019-05-28T13:55:09.784Z,99.90
2019-05-28T13:57:39.601Z,99.90
2019-05-28T14:00:11.507Z,99.90
2019-05-28T14:02:45.965Z,99.90
2019-05-28T14:05:11.720Z,99.90
2019-05-28T14:07:40.608Z,99.90
2019-05-28T14:10:10.178Z,99.90
2019-05-28T14:12:38.996Z,99.90
2019-05-28T14:15:08.414Z,99.90
2019-05-28T14:17:37.396Z,99.90
2019-05-28T14:20:07.411Z,99.90
2019-05-28T14:22:37.068Z,99.90
2019-05-28T14:25:06.948Z,99.90
2019-05-28T14:27:35.877Z,99.90
2019-05-28T14:30:07.667Z,99.90
2019-05-28T14:32:36.535Z,99.90
2019-05-28T14:35:07.681Z,99.90
2019-05-28T14:37:36.544Z,99.90
2019-05-28T14:40:08.742Z,99.90
2019-05-28T14:42:37.525Z,99.90
2019-05-28T14:45:08.223Z,99.90
2019-05-28T14:47:37.038Z,99.90
2019-05-28T14:50:08.205Z,99.90
2019-05-28T14:52:36.987Z,99.90
2019-05-28T14:55:09.880Z,99.90
2019-05-28T14:57:38.645Z,99.90
2019-05-28T15:00:08.887Z,99.90
2019-05-28T15:02:38.039Z,99.90
2019-05-28T15:05:08.577Z,99.90
2019-05-28T15:07:37.383Z,99.90
2019-05-28T15:10:11.170Z,99.90
2019-05-28T15:12:40.359Z,99.90
2019-05-28T15:15:11.301Z,99.90
2019-05-28T15:17:40.084Z,99.90
2019-05-28T15:20:09.700Z,99.90
2019-05-28T15:22:38.443Z,99.90
2019-05-28T15:25:11.811Z,99.90
2019-05-28T15:27:40.784Z,99.90
2019-05-28T15:30:11.248Z,99.90
2019-05-28T15:32:40.010Z,99.90
2019-05-28T15:35:09.882Z,99.90
2019-05-28T15:37:38.693Z,99.90
2019-05-28T15:40:08.237Z,99.90
2019-05-28T15:42:37.084Z,99.90
2019-05-28T15:45:07.954Z,99.90
2019-05-28T15:47:37.648Z,99.90
2019-05-28T15:50:08.151Z,99.90
2019-05-28T15:52:37.152Z,99.90
2019-05-28T15:55:07.309Z,99.90
2019-05-28T15:57:36.231Z,99.90
2019-05-28T16:00:09.700Z,99.90
2019-05-28T16:02:38.459Z,99.90
2019-05-28T16:05:07.437Z,99.90
2019-05-28T16:07:36.213Z,99.90
2019-05-28T16:10:09.130Z,99.90
2019-05-28T16:12:37.950Z,99.90
2019-05-28T16:15:08.555Z,99.90
2019-05-28T16:17:37.412Z,99.90
2019-05-28T16:20:08.170Z,99.90
2019-05-28T16:22:37.034Z,99.90
2019-05-28T16:25:10.071Z,99.90
2019-05-28T16:27:38.876Z,99.90
2019-05-28T16:30:09.157Z,99.90
2019-05-28T16:32:38.049Z,99.90
2019-05-28T16:35:07.581Z,99.90
2019-05-28T16:37:36.400Z,99.90
2019-05-28T16:40:15.593Z,99.90
2019-05-28T16:42:39.685Z,99.90
2019-05-28T16:45:09.183Z,99.90
2019-05-28T16:47:37.980Z,99.90
2019-05-28T16:50:07.504Z,99.90
2019-05-28T16:52:36.556Z,99.90
2019-05-28T16:55:10.141Z,99.90
2019-05-28T16:57:38.933Z,99.90
2019-05-28T17:00:08.774Z,99.90
2019-05-28T17:02:37.682Z,99.90
2019-05-28T17:05:07.749Z,99.90
2019-05-28T17:07:36.499Z,99.90
2019-05-28T17:10:06.175Z,99.90
2019-05-28T17:12:35.093Z,99.90
2019-05-28T17:15:07.868Z,99.90
2019-05-28T17:17:36.745Z,99.90
2019-05-28T17:20:09.402Z,99.90
2019-05-28T17:22:38.211Z,99.90
2019-05-28T17:25:11.942Z,99.90
2019-05-28T17:27:39.845Z,99.90
2019-05-28T17:30:17.896Z,99.90
2019-05-28T17:32:40.137Z,99.90
2019-05-28T17:35:09.341Z,99.90
2019-05-28T17:37:38.139Z,99.90
2019-05-28T17:46:16.465Z,99.90
2019-05-28T17:48:45.228Z,99.90
2019-05-28T17:51:14.065Z,99.90
2019-05-28T17:53:42.892Z,99.90
2019-05-28T17:56:11.714Z,99.90
2019-05-28T17:58:40.529Z,99.90
2019-05-28T18:01:10.872Z,99.90
2019-05-28T18:03:39.649Z,99.90
2019-05-28T18:06:08.501Z,99.90
2019-05-28T18:08:37.283Z,99.90
2019-05-28T18:11:06.107Z,99.90
2019-05-28T18:13:34.959Z,99.90
2019-05-28T18:16:04.679Z,99.90
2019-05-28T18:18:33.527Z,99.90
2019-05-28T18:21:02.328Z,99.90
2019-05-28T18:23:31.063Z,99.90
2019-05-28T18:25:59.939Z,99.90
2019-05-28T18:28:28.722Z,99.90
2019-05-28T18:30:57.638Z,99.90
2019-05-28T18:33:26.418Z,99.90
2019-05-28T18:40:06.883Z,99.90
2019-05-28T18:42:35.743Z,99.90
2019-05-28T18:45:04.957Z,99.90
2019-05-28T18:47:37.433Z,99.90
2019-05-28T18:50:07.650Z,99.90
2019-05-28T18:52:36.451Z,99.90
2019-05-28T18:55:07.798Z,99.90
2019-05-28T18:57:36.568Z,99.90
2019-05-28T19:00:08.526Z,99.90
2019-05-28T19:02:37.372Z,99.90
2019-05-28T19:05:07.381Z,99.90
2019-05-28T19:07:36.233Z,99.90
2019-05-28T19:10:06.825Z,99.90
2019-05-28T19:12:35.622Z,99.90
2019-05-28T19:15:09.149Z,99.90
2019-05-28T19:17:38.028Z,99.90
2019-05-28T19:20:08.585Z,99.90
2019-05-28T19:22:37.375Z,99.90
2019-05-28T19:25:10.737Z,99.90
2019-05-28T19:27:39.606Z,99.90
2019-05-28T19:30:11.974Z,99.90
2019-05-28T19:32:40.778Z,99.90
2019-05-28T19:35:12.077Z,99.90
2019-05-28T19:37:41.345Z,99.90
2019-05-28T19:40:12.524Z,99.90
2019-05-28T19:42:41.317Z,99.90
2019-05-28T19:45:13.236Z,99.90
2019-05-28T19:47:42.145Z,99.90
2019-05-28T19:50:12.712Z,99.90
2019-05-28T19:52:41.533Z,99.90
2019-05-28T19:55:10.405Z,99.90
2019-05-28T19:57:41.603Z,99.90
2019-05-28T20:00:11.148Z,99.90
2019-05-28T20:02:41.548Z,99.90
2019-05-28T20:05:15.022Z,99.90
2019-05-28T20:11:25.499Z,99.90
2019-05-28T20:13:54.394Z,99.90
2019-05-28T20:16:23.208Z,99.90
2019-05-28T20:18:52.145Z,99.90
2019-05-28T20:21:20.933Z,99.90
2019-05-28T20:23:50.108Z,99.90
2019-05-28T20:26:18.980Z,99.90
2019-05-28T20:28:47.764Z,99.90
2019-05-28T20:31:16.526Z,99.90
2019-05-28T20:33:45.391Z,99.90
2019-05-28T20:36:14.295Z,99.90
2019-05-28T20:38:43.118Z,99.90
2019-05-28T20:41:11.941Z,99.90
2019-05-28T20:43:40.854Z,99.90
2019-05-28T20:46:10.572Z,99.90
2019-05-28T20:48:39.566Z,99.90
2019-05-28T20:51:18.360Z,99.90
2019-05-28T20:53:38.891Z,99.90
2019-05-28T20:56:07.723Z,99.90
2019-05-28T20:58:40.161Z,99.90
2019-05-28T21:01:06.974Z,99.90
2019-05-28T21:03:35.736Z,99.90
2019-05-28T21:06:04.659Z,99.90
2019-05-28T21:08:33.463Z,99.90
2019-05-28T21:11:02.340Z,99.90
2019-05-28T21:13:31.185Z,99.90
2019-05-28T21:16:00.097Z,99.90
2019-05-28T21:18:28.895Z,99.90
2019-05-28T21:20:57.661Z,99.90
2019-05-28T21:23:26.439Z,99.90
2019-05-28T21:25:56.223Z,99.90
2019-05-28T21:28:25.995Z,99.90
2019-05-28T21:30:55.007Z,99.90
2019-05-28T21:33:23.787Z,99.90
2019-05-28T21:35:53.037Z,99.90
2019-05-28T21:38:24.861Z,99.90
2019-05-28T21:40:53.646Z,99.90
2019-05-28T21:43:22.523Z,99.90
2019-05-28T21:45:51.995Z,99.90
2019-05-28T21:48:20.844Z,99.90
2019-05-28T21:50:51.071Z,99.90
2019-05-28T21:53:19.832Z,99.90
2019-05-28T21:55:48.721Z,99.90
2019-05-28T21:58:17.483Z,99.90
2019-05-28T22:01:02.086Z,99.90
2019-05-28T22:03:31.020Z,99.90
2019-05-28T22:05:59.851Z,99.90
2019-05-28T22:08:28.719Z,99.90
2019-05-28T22:10:57.758Z,99.90
2019-05-28T22:13:26.686Z,99.90
2019-05-28T22:15:56.048Z,99.90
2019-05-28T22:18:24.990Z,99.90
2019-05-28T22:20:53.838Z,99.90
2019-05-28T22:23:22.694Z,99.90
2019-05-28T22:25:51.531Z,99.90
2019-05-28T22:28:20.367Z,99.90
2019-05-28T22:30:49.225Z,99.90
2019-05-28T22:33:18.053Z,99.90
2019-05-28T22:35:46.879Z,99.90
2019-05-28T22:38:15.750Z,99.90
2019-05-28T22:40:44.582Z,99.90
2019-05-28T22:43:13.434Z,99.90
2019-05-28T22:45:43.349Z,99.90
2019-05-28T22:48:16.847Z,99.90
2019-05-28T22:50:43.471Z,99.90
2019-05-28T22:53:12.292Z,99.90
2019-05-28T22:55:41.117Z,99.90
2019-05-28T22:58:09.962Z,99.90
2019-05-28T23:00:38.777Z,99.90
2019-05-28T23:03:07.539Z,99.90
2019-05-28T23:05:36.372Z,99.90
2019-05-28T23:08:05.852Z,99.90
2019-05-28T23:10:34.881Z,99.90
2019-05-28T23:13:04.883Z,99.90
2019-05-28T23:15:33.729Z,99.90
2019-05-28T23:18:02.545Z,99.90
2019-05-28T23:20:31.373Z,99.90
2019-05-28T23:23:00.982Z,99.90
2019-05-28T23:25:29.935Z,99.90
2019-05-28T23:27:58.749Z,99.90
2019-05-28T23:30:27.525Z,99.90
2019-05-28T23:32:56.326Z,99.90
2019-05-28T23:35:25.204Z,99.90
2019-05-28T23:37:54.045Z,99.90
2019-05-28T23:40:22.775Z,99.90
2019-05-28T23:42:53.024Z,99.90
2019-05-28T23:45:21.874Z,99.90
2019-05-28T23:47:50.664Z,99.90
2019-05-28T23:50:19.438Z,99.90
2019-05-28T23:52:48.333Z,99.90
2019-05-28T23:55:18.107Z,99.90
2019-05-28T23:57:47.068Z,99.90
